»·PEaware :: N760PL L52-L88

N760PL :: L52-L88

FLIGHT INFORMATION

Flight Status: Arrived
Operator: Privately registered:
United States
More flights under this callsign
Pilot: Dawson G. (22754)
Aircraft: CESSNA 172 SKYHAWK
(C172)
More flights by this aircraft type
Origin: L52 Oceano Co
United States
Destination: L88 New Cuyama
United States
More flights between these airports :: More routes between these airports
Route:
File this flight plan on PilotEdge
Remarks:
Altitude:
(Current/Filed)
7,500ft
Speed:
(Current/Filed)
120kts
Departed: 06-Jan-19 03:51 PM
Arrived: 06-Jan-19 04:21 PM
Distance/Time
Traveled:
47nm/0:30
Distance/Time
To Go:
Arrived

Flight Plot

Page will automatically refresh every two minutes.


Map Options




Map Legend


Flown Route
Filed Route
Departure Airport
Arrival Airport
Navaid (VOR, NDB)
Fix

Horizontal Profiles

Position Reports

Time Latitude Longitude Heading Altitude Ground
Speed
06-Jan-19 15:39 35.103497 -120.624070 35 17ft 0kts
06-Jan-19 15:40 35.103497 -120.624070 35 17ft 0kts
06-Jan-19 15:41 35.103497 -120.624070 35 17ft 0kts
06-Jan-19 15:42 35.103497 -120.624070 35 17ft 0kts
06-Jan-19 15:43 35.103497 -120.624071 34 17ft 0kts
06-Jan-19 15:44 35.103493 -120.624074 33 17ft 0kts
06-Jan-19 15:45 35.103493 -120.624074 33 17ft 0kts
06-Jan-19 15:46 35.103318 -120.624216 33 17ft 2kts
06-Jan-19 15:47 35.103180 -120.624327 33 17ft 0kts
06-Jan-19 15:48 35.103357 -120.625063 216 17ft 4kts
06-Jan-19 15:49 35.103048 -120.625045 122 17ft 0kts
06-Jan-19 15:50 35.095159 -120.610857 123 424ft 74kts
06-Jan-19 15:51 35.092899 -120.587284 80 1288ft 79kts
06-Jan-19 15:52 35.092302 -120.559194 100 2053ft 87kts
06-Jan-19 15:53 35.087311 -120.529637 101 2775ft 90kts
06-Jan-19 15:54 35.082074 -120.499544 102 3470ft 90kts
06-Jan-19 15:55 35.076870 -120.469779 99 4148ft 89kts
06-Jan-19 15:56 35.071696 -120.440179 98 4810ft 89kts
06-Jan-19 15:57 35.066545 -120.410753 98 5456ft 88kts
06-Jan-19 15:58 35.061475 -120.381856 101 6079ft 85kts
06-Jan-19 15:59 35.056604 -120.354221 105 6646ft 82kts
06-Jan-19 16:00 35.051765 -120.326726 105 7153ft 82kts
06-Jan-19 16:01 35.046763 -120.298295 105 7567ft 95kts
06-Jan-19 16:02 35.039987 -120.258939 103 7515ft 132kts
06-Jan-19 16:03 35.032256 -120.214676 104 7498ft 133kts
06-Jan-19 16:04 35.024455 -120.170621 104 7501ft 133kts
06-Jan-19 16:05 35.016627 -120.126555 104 7503ft 132kts
06-Jan-19 16:06 35.008774 -120.082448 104 7498ft 133kts
06-Jan-19 16:07 35.006550 -120.069974 104 7482ft 134kts
06-Jan-19 16:08 34.998105 -120.022386 104 6975ft 149kts
06-Jan-19 16:09 34.989235 -119.972606 103 6430ft 151kts
06-Jan-19 16:10 34.980316 -119.922989 101 5877ft 148kts
06-Jan-19 16:11 34.971927 -119.881017 111 5003ft 131kts
06-Jan-19 16:12 34.958421 -119.845954 111 3949ft 87kts
06-Jan-19 16:13 34.950428 -119.823947 112 3726ft 81kts
06-Jan-19 16:14 34.940458 -119.794456 110 4185ft 102kts
06-Jan-19 16:15 34.926770 -119.761614 118 4408ft 112kts
06-Jan-19 16:16 34.913167 -119.726429 110 4407ft 129kts
06-Jan-19 16:17 34.900050 -119.684954 109 3726ft 128kts
06-Jan-19 16:18 34.909140 -119.653378 11 3738ft 98kts
06-Jan-19 16:19 34.930037 -119.669735 300 2523ft 74kts
06-Jan-19 16:20 34.936907 -119.686994 296 2206ft 21kts
06-Jan-19 16:21 34.939629 -119.694091 305 2206ft 1kts
06-Jan-19 16:22 34.939912 -119.693857 21 2206ft 0kts
06-Jan-19 16:23 34.939966 -119.693835 22 2206ft 0kts
06-Jan-19 16:24 34.939966 -119.693835 22 2206ft 0kts
06-Jan-19 16:25 34.939966 -119.693835 22 2206ft 0kts
06-Jan-19 16:26 34.939966 -119.693835 22 2206ft 0kts
06-Jan-19 16:27 34.939966 -119.693835 22 2206ft 0kts
06-Jan-19 16:28 34.939966 -119.693835 22 2206ft 0kts
06-Jan-19 16:29 34.939966 -119.693835 22 2206ft 0kts
06-Jan-19 16:30 34.939966 -119.693835 22 2206ft 0kts
06-Jan-19 16:31 34.939966 -119.693835 22 2206ft 0kts
06-Jan-19 16:32 34.939966 -119.693835 22 2206ft 0kts
06-Jan-19 16:33 34.939966 -119.693835 22 2206ft 0kts
06-Jan-19 16:34 34.939966 -119.693835 22 2206ft 0kts

Navigation Log

Ident Type
Flight plan parsing failed, navigation log unavailable